Time;durP1;ratioP1;P1;durP2;ratioP2;P2;SDS_P1;SDS_P2;PMS_P1;PMS_P2;Temp;Humidity;BMP_temperature;BMP_pressure;BME280_temperature;BME280_humidity;BME280_pressure;Samples;Min_cycle;Max_cycle;Signal;HPM_P1;HPM_P2
2023/05/06 00:02:00;;;;;;;21.60;20.20;;;14.20;99.90;;;;;;5039202;28;20193;-50
2023/05/06 00:04:26;;;;;;;22.03;20.43;;;14.20;99.90;;;;;;5039668;28;20470;-50
2023/05/06 00:06:53;;;;;;;22.23;20.63;;;14.10;99.90;;;;;;5039655;28;20485;-51
2023/05/06 00:09:18;;;;;;;22.80;21.30;;;14.00;99.90;;;;;;5039733;28;20469;-52
2023/05/06 00:11:44;;;;;;;22.83;21.27;;;13.90;99.90;;;;;;5039745;28;20420;-48
2023/05/06 00:14:11;;;;;;;23.27;21.50;;;13.90;99.90;;;;;;5039800;28;20197;-49
2023/05/06 00:16:36;;;;;;;22.63;21.00;;;13.80;99.90;;;;;;5039901;28;20416;-50
2023/05/06 00:19:02;;;;;;;23.13;21.53;;;13.70;99.90;;;;;;5039375;28;20435;-49
2023/05/06 00:21:28;;;;;;;22.73;21.00;;;13.70;99.90;;;;;;5039324;28;20186;-51
2023/05/06 00:23:54;;;;;;;23.30;21.50;;;13.70;99.90;;;;;;5039211;28;21028;-53
2023/05/06 00:26:19;;;;;;;22.70;20.90;;;13.60;99.90;;;;;;5038682;28;20181;-51
2023/05/06 00:28:45;;;;;;;23.03;21.13;;;13.60;99.90;;;;;;5039709;28;20552;-51
2023/05/06 00:31:11;;;;;;;22.90;21.23;;;13.60;99.90;;;;;;5039298;28;20193;-54
2023/05/06 00:33:36;;;;;;;23.00;21.40;;;13.50;99.90;;;;;;5039387;28;21101;-52
2023/05/06 00:36:02;;;;;;;23.03;21.30;;;13.40;99.90;;;;;;5038914;28;20296;-53
2023/05/06 00:38:27;;;;;;;23.53;21.70;;;13.40;99.90;;;;;;5037726;28;20189;-46
2023/05/06 00:40:53;;;;;;;22.70;20.97;;;13.30;99.90;;;;;;5037113;28;20252;-47
2023/05/06 00:43:19;;;;;;;24.13;22.33;;;13.30;99.90;;;;;;5037621;28;20172;-50
2023/05/06 00:45:44;;;;;;;23.50;21.80;;;13.20;99.90;;;;;;5038297;28;20208;-50
2023/05/06 00:48:10;;;;;;;23.47;21.70;;;13.20;99.90;;;;;;5038177;28;20819;-52
2023/05/06 00:50:38;;;;;;;23.27;21.50;;;13.20;99.90;;;;;;5039120;28;20654;-48
2023/05/06 00:53:06;;;;;;;23.40;21.50;;;13.10;99.90;;;;;;5040768;28;21244;-48
2023/05/06 00:55:32;;;;;;;23.10;21.40;;;13.10;99.90;;;;;;5041916;28;20463;-51
2023/05/06 00:57:58;;;;;;;22.63;20.80;;;13.20;99.90;;;;;;5042512;28;20436;-47
2023/05/06 01:00:24;;;;;;;23.63;21.83;;;13.10;99.90;;;;;;5042764;28;20174;-53
2023/05/06 01:02:50;;;;;;;22.30;20.60;;;13.10;99.90;;;;;;5042957;28;20633;-52
2023/05/06 01:05:17;;;;;;;22.80;20.90;;;13.10;99.90;;;;;;5042368;28;20478;-50
2023/05/06 01:08:15;;;;;;;23.70;21.50;;;13.10;99.90;;;;;;5042855;28;20296;-52
2023/05/06 01:10:48;;;;;;;22.97;21.17;;;13.10;99.90;;;;;;5040434;28;20467;-50
2023/05/06 01:13:27;;;;;;;22.87;21.07;;;13.10;99.90;;;;;;5043333;28;20783;-51
2023/05/06 01:15:58;;;;;;;22.83;20.70;;;13.10;99.90;;;;;;5042842;28;20972;-48
2023/05/06 01:18:27;;;;;;;23.70;21.80;;;13.10;99.90;;;;;;5042691;28;20961;-48
2023/05/06 01:20:54;;;;;;;23.20;21.20;;;13.10;99.90;;;;;;5042548;28;20519;-51
2023/05/06 01:23:20;;;;;;;22.93;21.03;;;13.00;99.90;;;;;;5042339;28;20547;-47
2023/05/06 01:25:46;;;;;;;21.93;20.03;;;12.90;99.90;;;;;;5042185;28;20793;-51
2023/05/06 01:28:12;;;;;;;24.00;22.00;;;12.90;99.90;;;;;;5042644;28;20424;-49
2023/05/06 01:30:53;;;;;;;22.50;20.70;;;12.90;99.90;;;;;;5041951;28;20529;-51
2023/05/06 01:33:49;;;;;;;23.20;21.20;;;12.90;99.90;;;;;;5041522;28;20439;-52
2023/05/06 01:36:28;;;;;;;23.40;21.67;;;12.90;99.90;;;;;;5042297;28;20412;-54
2023/05/06 01:38:56;;;;;;;21.90;20.17;;;12.80;99.90;;;;;;5041476;28;20446;-52
2023/05/06 01:41:23;;;;;;;23.73;21.70;;;12.80;99.90;;;;;;5042483;28;20832;-51
2023/05/06 01:43:51;;;;;;;23.70;21.77;;;12.80;99.90;;;;;;5042809;28;20550;-53
2023/05/06 01:46:19;;;;;;;22.47;20.67;;;12.80;99.90;;;;;;5042009;28;20416;-53
2023/05/06 01:48:46;;;;;;;22.50;20.70;;;12.70;99.90;;;;;;5041878;28;20451;-50
2023/05/06 01:51:11;;;;;;;22.50;20.90;;;12.70;99.90;;;;;;5042274;28;20820;-48
2023/05/06 01:53:37;;;;;;;22.73;21.00;;;12.80;99.90;;;;;;5042332;28;20553;-54
2023/05/06 01:56:03;;;;;;;23.57;21.77;;;12.80;99.90;;;;;;5041215;28;20949;-49
2023/05/06 01:58:29;;;;;;;22.83;21.10;;;12.70;99.90;;;;;;5041955;28;20243;-48
2023/05/06 02:00:54;;;;;;;24.23;22.13;;;12.70;99.90;;;;;;5040785;28;20439;-50
2023/05/06 02:03:20;;;;;;;23.97;21.97;;;12.70;99.90;;;;;;5040612;28;20218;-55
2023/05/06 02:05:46;;;;;;;23.67;21.73;;;12.70;99.90;;;;;;5041297;28;20588;-53
2023/05/06 02:08:11;;;;;;;22.90;21.00;;;12.70;99.90;;;;;;5039870;28;20268;-49
2023/05/06 02:10:37;;;;;;;24.10;22.10;;;12.70;99.90;;;;;;5038662;28;20198;-50
2023/05/06 02:13:03;;;;;;;23.80;21.80;;;12.70;99.90;;;;;;5039763;28;20367;-53
2023/05/06 02:15:29;;;;;;;23.30;21.40;;;12.70;99.90;;;;;;5040190;28;20237;-49
2023/05/06 02:17:55;;;;;;;23.67;21.80;;;12.70;99.90;;;;;;5041130;28;20439;-51
2023/05/06 02:20:21;;;;;;;23.70;21.80;;;12.70;99.90;;;;;;5040694;28;21074;-51
2023/05/06 02:22:47;;;;;;;24.33;22.40;;;12.70;99.90;;;;;;5041546;28;20551;-49
2023/05/06 02:25:12;;;;;;;24.20;22.20;;;12.70;99.90;;;;;;5040920;28;20193;-49
2023/05/06 02:27:38;;;;;;;24.63;22.53;;;12.70;99.90;;;;;;5041621;28;20284;-48
2023/05/06 02:30:05;;;;;;;24.93;23.10;;;12.70;99.90;;;;;;5041561;28;20926;-52
2023/05/06 02:32:30;;;;;;;23.50;21.63;;;12.70;99.90;;;;;;5039350;28;20300;-51
2023/05/06 02:34:56;;;;;;;23.10;21.30;;;12.70;99.90;;;;;;5040974;28;20467;-50
2023/05/06 02:37:22;;;;;;;23.67;21.87;;;12.70;99.90;;;;;;5041681;28;20276;-51
2023/05/06 02:39:47;;;;;;;23.20;21.43;;;12.70;99.90;;;;;;5041402;28;20244;-54
2023/05/06 02:42:14;;;;;;;22.03;20.43;;;12.70;99.90;;;;;;5041142;28;20708;-51
2023/05/06 02:44:40;;;;;;;22.37;20.60;;;12.70;99.90;;;;;;5041018;28;20695;-48
2023/05/06 02:47:06;;;;;;;23.17;21.43;;;12.70;99.90;;;;;;5041306;28;20432;-50
2023/05/06 02:49:31;;;;;;;22.47;20.70;;;12.70;99.90;;;;;;5041177;28;20424;-51
2023/05/06 02:51:57;;;;;;;23.27;21.37;;;12.70;99.90;;;;;;5041123;28;20197;-51
2023/05/06 02:54:23;;;;;;;23.07;20.93;;;12.70;99.90;;;;;;5040817;28;20571;-49
2023/05/06 02:56:48;;;;;;;22.07;20.47;;;12.70;99.90;;;;;;5040889;28;20182;-52
2023/05/06 02:59:15;;;;;;;23.30;21.20;;;12.70;99.90;;;;;;5040958;28;20185;-51
2023/05/06 03:01:41;;;;;;;22.90;21.20;;;12.70;99.90;;;;;;5039712;28;20182;-51
2023/05/06 03:04:07;;;;;;;23.83;22.03;;;12.70;99.90;;;;;;5041259;28;20419;-49
2023/05/06 03:06:32;;;;;;;23.30;21.60;;;12.70;99.90;;;;;;5040722;28;20182;-52
2023/05/06 03:08:58;;;;;;;23.83;22.03;;;12.80;99.90;;;;;;5040985;28;20729;-51
2023/05/06 03:11:23;;;;;;;22.30;20.60;;;12.80;99.90;;;;;;5041123;28;20189;-49
2023/05/06 03:13:50;;;;;;;23.50;21.60;;;12.80;99.90;;;;;;5040466;28;20197;-49
2023/05/06 03:16:16;;;;;;;22.43;20.83;;;12.80;99.90;;;;;;5040794;28;20178;-55
2023/05/06 03:18:41;;;;;;;22.73;21.10;;;12.80;99.90;;;;;;5040724;28;21373;-52
2023/05/06 03:21:07;;;;;;;23.30;21.30;;;12.80;99.90;;;;;;5040700;28;20543;-51
2023/05/06 03:23:32;;;;;;;22.90;21.20;;;12.80;99.90;;;;;;5039220;28;20878;-51
2023/05/06 03:25:58;;;;;;;23.40;21.50;;;12.80;99.90;;;;;;5039704;28;20594;-54
2023/05/06 03:28:23;;;;;;;24.07;22.27;;;12.80;99.90;;;;;;5040957;28;20188;-50
2023/05/06 03:30:49;;;;;;;22.70;20.80;;;12.80;99.90;;;;;;5039522;28;20247;-51
2023/05/06 03:33:15;;;;;;;22.97;21.30;;;12.80;99.90;;;;;;5039945;28;20668;-49
2023/05/06 03:35:40;;;;;;;23.20;21.40;;;12.80;99.90;;;;;;5038789;28;20296;-50
2023/05/06 03:38:06;;;;;;;24.17;22.37;;;12.80;99.90;;;;;;5039794;28;20606;-52
2023/05/06 03:40:32;;;;;;;24.77;22.20;;;12.80;99.90;;;;;;5039891;28;20182;-50
2023/05/06 03:42:58;;;;;;;23.20;21.37;;;12.80;99.90;;;;;;5039921;28;20186;-52
2023/05/06 03:45:23;;;;;;;22.90;21.10;;;12.80;99.90;;;;;;5040418;28;20478;-47
2023/05/06 03:47:49;;;;;;;23.77;21.77;;;12.80;99.90;;;;;;5039753;28;20190;-49
2023/05/06 03:50:14;;;;;;;23.00;21.40;;;12.80;99.90;;;;;;5038454;28;20194;-50
2023/05/06 03:52:40;;;;;;;23.43;21.63;;;12.90;99.90;;;;;;5040351;28;20182;-51
2023/05/06 03:55:06;;;;;;;23.43;21.67;;;12.90;99.90;;;;;;5039917;28;20619;-52
2023/05/06 03:57:32;;;;;;;24.87;22.50;;;12.90;99.90;;;;;;5039958;28;20599;-52
2023/05/06 03:59:57;;;;;;;24.10;22.07;;;13.00;99.90;;;;;;5039472;28;20439;-52
2023/05/06 04:02:23;;;;;;;23.90;22.00;;;13.00;99.90;;;;;;5039241;28;20193;-54
2023/05/06 04:04:49;;;;;;;24.17;22.37;;;13.00;99.90;;;;;;5039926;28;20445;-51
2023/05/06 04:07:14;;;;;;;23.20;21.30;;;13.00;99.90;;;;;;5039794;28;20193;-49
2023/05/06 04:09:40;;;;;;;23.67;21.83;;;13.10;99.90;;;;;;5039983;28;20468;-51
2023/05/06 04:12:06;;;;;;;23.03;21.27;;;13.10;99.90;;;;;;5039450;28;20217;-49
2023/05/06 04:14:31;;;;;;;23.50;21.70;;;13.10;99.90;;;;;;5039976;28;20205;-55
2023/05/06 04:16:57;;;;;;;23.60;21.70;;;13.10;99.90;;;;;;5038965;28;20821;-51
2023/05/06 04:19:23;;;;;;;22.97;21.27;;;13.00;99.90;;;;;;5039832;28;20708;-49
2023/05/06 04:21:48;;;;;;;22.83;20.93;;;13.00;99.90;;;;;;5038977;28;20311;-48
2023/05/06 04:24:15;;;;;;;23.40;21.60;;;13.00;99.90;;;;;;5039814;28;20194;-54
2023/05/06 04:26:41;;;;;;;23.87;21.90;;;13.00;99.90;;;;;;5039125;28;20185;-50
2023/05/06 04:29:07;;;;;;;23.70;21.70;;;12.90;99.90;;;;;;5039510;28;20416;-52
2023/05/06 04:31:33;;;;;;;22.70;21.00;;;13.00;99.90;;;;;;5039703;28;20431;-53
2023/05/06 04:34:00;;;;;;;23.23;21.40;;;12.90;99.90;;;;;;5039767;28;20269;-47
2023/05/06 04:36:25;;;;;;;23.63;21.73;;;12.90;99.90;;;;;;5039856;28;20654;-49
2023/05/06 04:38:52;;;;;;;22.33;20.57;;;12.80;99.90;;;;;;5038942;28;20918;-51
2023/05/06 04:41:18;;;;;;;23.07;21.27;;;12.80;99.90;;;;;;5039120;28;20419;-53
2023/05/06 04:43:43;;;;;;;23.03;21.10;;;12.80;99.90;;;;;;5037188;28;20490;-49
2023/05/06 04:46:09;;;;;;;22.63;20.77;;;12.80;99.90;;;;;;5037794;28;20766;-49
2023/05/06 04:48:36;;;;;;;22.77;20.87;;;12.80;99.90;;;;;;5039167;28;20204;-47
2023/05/06 04:51:04;;;;;;;22.13;20.33;;;12.80;99.90;;;;;;5038773;28;20197;-48
2023/05/06 04:53:31;;;;;;;22.77;20.87;;;12.80;99.90;;;;;;5037632;28;21086;-50
2023/05/06 04:55:56;;;;;;;21.70;19.90;;;12.80;99.90;;;;;;5037596;28;20467;-54
2023/05/06 04:58:22;;;;;;;21.23;19.50;;;12.90;99.90;;;;;;5038724;28;21259;-51
2023/05/06 05:00:48;;;;;;;21.37;19.63;;;12.90;99.90;;;;;;5037484;28;20186;-48
2023/05/06 05:03:13;;;;;;;22.10;20.30;;;12.90;99.90;;;;;;5039043;28;20177;-45
2023/05/06 05:05:39;;;;;;;21.20;19.40;;;13.00;99.90;;;;;;5039338;28;20549;-46
2023/05/06 05:08:05;;;;;;;21.70;20.00;;;13.10;99.90;;;;;;5039037;28;20801;-47
2023/05/06 05:10:30;;;;;;;21.17;19.27;;;13.10;99.90;;;;;;5039241;28;20269;-51
2023/05/06 05:12:56;;;;;;;21.27;19.47;;;13.10;99.90;;;;;;5038677;28;20269;-45
2023/05/06 05:15:22;;;;;;;20.27;18.57;;;13.10;99.90;;;;;;5038837;28;20237;-51
2023/05/06 05:17:49;;;;;;;20.90;19.20;;;13.10;99.90;;;;;;5039266;28;20459;-48
2023/05/06 05:20:15;;;;;;;20.67;18.87;;;13.10;99.90;;;;;;5039069;28;20655;-47
2023/05/06 05:22:40;;;;;;;21.03;19.23;;;13.10;99.90;;;;;;5037495;28;20476;-50
2023/05/06 05:25:06;;;;;;;20.27;18.57;;;13.00;99.90;;;;;;5039664;28;20181;-46
2023/05/06 05:27:32;;;;;;;20.20;18.37;;;13.10;99.90;;;;;;5038821;28;20418;-46
2023/05/06 05:29:57;;;;;;;20.20;18.57;;;13.10;99.90;;;;;;5037940;28;20450;-51
2023/05/06 05:32:23;;;;;;;18.90;17.33;;;13.20;99.90;;;;;;5038815;28;20174;-48
2023/05/06 05:34:49;;;;;;;20.50;18.83;;;13.20;99.90;;;;;;5039008;28;20206;-51
2023/05/06 05:37:15;;;;;;;20.10;18.40;;;13.20;99.90;;;;;;5039186;28;20182;-46
2023/05/06 05:39:40;;;;;;;20.20;18.50;;;13.20;99.90;;;;;;5042178;28;20182;-48
2023/05/06 05:42:06;;;;;;;20.20;18.50;;;13.30;99.90;;;;;;5042973;28;20235;-51
2023/05/06 05:44:32;;;;;;;19.90;18.30;;;13.30;99.90;;;;;;5042139;28;20198;-46
2023/05/06 05:46:57;;;;;;;19.00;17.50;;;13.40;99.90;;;;;;5042555;28;20637;-48
2023/05/06 05:49:23;;;;;;;19.90;18.30;;;13.50;99.90;;;;;;5042332;28;20458;-46
2023/05/06 05:51:49;;;;;;;21.23;19.23;;;13.50;99.90;;;;;;5041463;28;20185;-46
2023/05/06 05:54:15;;;;;;;20.43;18.63;;;13.60;99.90;;;;;;5042238;28;20232;-47
2023/05/06 05:56:41;;;;;;;19.30;17.80;;;13.60;99.90;;;;;;5042187;28;20186;-50
2023/05/06 05:59:06;;;;;;;20.27;18.57;;;13.60;99.90;;;;;;5040981;28;21451;-51
2023/05/06 06:01:32;;;;;;;19.73;18.03;;;13.70;99.90;;;;;;5037434;28;20710;-49
2023/05/06 06:03:58;;;;;;;20.77;19.00;;;13.80;99.90;;;;;;5038806;28;20546;-46
2023/05/06 06:06:24;;;;;;;20.23;18.43;;;13.80;99.90;;;;;;5039081;28;20715;-46
2023/05/06 06:08:50;;;;;;;20.70;18.80;;;13.90;99.90;;;;;;5040827;28;20553;-49
2023/05/06 06:11:15;;;;;;;20.27;18.57;;;13.90;99.90;;;;;;5041236;28;20186;-48
2023/05/06 06:13:41;;;;;;;21.63;19.90;;;13.90;99.90;;;;;;5041376;28;20595;-46
2023/05/06 06:16:07;;;;;;;19.77;18.27;;;13.90;99.90;;;;;;5042135;28;20557;-53
2023/05/06 06:18:32;;;;;;;21.27;19.27;;;14.00;99.90;;;;;;5042265;28;20183;-47
2023/05/06 06:20:58;;;;;;;18.97;17.40;;;14.10;99.90;;;;;;5041585;28;20185;-49
2023/05/06 06:23:24;;;;;;;20.50;18.90;;;14.10;99.90;;;;;;5041208;28;20256;-46
2023/05/06 06:25:49;;;;;;;19.17;17.60;;;14.20;99.90;;;;;;5041236;28;20232;-47
2023/05/06 06:28:15;;;;;;;20.27;18.57;;;14.20;99.90;;;;;;5039909;28;20185;-49
2023/05/06 06:30:41;;;;;;;20.13;18.53;;;14.30;99.90;;;;;;5040673;28;20221;-49
2023/05/06 06:33:06;;;;;;;19.10;17.60;;;14.40;99.90;;;;;;5041581;28;20193;-49
2023/05/06 06:35:32;;;;;;;21.40;19.40;;;14.40;99.90;;;;;;5040900;28;20300;-50
2023/05/06 06:37:58;;;;;;;20.23;18.57;;;14.40;99.90;;;;;;5041172;28;20259;-51
2023/05/06 06:40:24;;;;;;;20.50;18.80;;;14.50;99.90;;;;;;5041490;28;20177;-49
2023/05/06 06:42:50;;;;;;;23.87;21.77;;;14.60;99.90;;;;;;5041345;28;20427;-50
2023/05/06 06:45:16;;;;;;;22.70;20.60;;;14.60;99.90;;;;;;5039958;28;20205;-46
2023/05/06 06:47:41;;;;;;;23.87;21.57;;;14.70;99.90;;;;;;5041714;28;20185;-51
2023/05/06 06:50:08;;;;;;;24.27;22.23;;;14.80;99.90;;;;;;5040852;28;20486;-48
2023/05/06 06:52:34;;;;;;;25.17;22.80;;;14.90;99.90;;;;;;5041436;28;20584;-46
2023/05/06 06:55:00;;;;;;;24.43;22.23;;;14.90;99.90;;;;;;5040268;28;20533;-49
2023/05/06 06:57:26;;;;;;;23.93;22.03;;;15.00;99.90;;;;;;5041385;28;20420;-49
2023/05/06 06:59:53;;;;;;;22.47;20.63;;;15.20;99.90;;;;;;5040866;28;20427;-47
2023/05/06 07:02:20;;;;;;;22.33;20.33;;;15.30;99.90;;;;;;5038672;28;20902;-49
2023/05/06 07:04:45;;;;;;;22.97;21.00;;;15.30;99.90;;;;;;5040126;28;20448;-47
2023/05/06 07:07:11;;;;;;;23.40;21.40;;;15.50;99.90;;;;;;5040067;28;20532;-47
2023/05/06 07:09:38;;;;;;;21.77;20.00;;;15.60;99.90;;;;;;5037284;28;20193;-51
2023/05/06 07:12:05;;;;;;;21.53;19.83;;;15.80;99.90;;;;;;5038361;28;20186;-48
2023/05/06 07:14:31;;;;;;;23.53;21.67;;;16.00;99.90;;;;;;5039493;28;20507;-48
2023/05/06 07:16:56;;;;;;;21.13;19.53;;;16.20;99.90;;;;;;5040768;28;20866;-52
2023/05/06 07:19:22;;;;;;;21.57;19.87;;;16.50;99.90;;;;;;5040418;28;20192;-48
2023/05/06 07:21:47;;;;;;;22.33;20.53;;;16.60;99.90;;;;;;5040513;28;20373;-46
2023/05/06 07:24:13;;;;;;;22.40;20.70;;;16.40;99.90;;;;;;5040791;28;20623;-49
2023/05/06 07:26:39;;;;;;;22.13;20.33;;;16.50;99.90;;;;;;5040570;28;20239;-45
2023/05/06 07:29:05;;;;;;;21.07;19.47;;;16.60;99.90;;;;;;5040019;28;20181;-48
2023/05/06 07:31:33;;;;;;;21.40;19.70;;;16.70;99.90;;;;;;5038489;28;20442;-49
2023/05/06 07:33:59;;;;;;;22.10;20.30;;;16.90;99.90;;;;;;5040622;28;20707;-50
2023/05/06 07:36:26;;;;;;;21.60;19.90;;;16.90;99.90;;;;;;5040479;28;20462;-47
2023/05/06 07:38:52;;;;;;;21.90;20.20;;;17.00;99.90;;;;;;5040336;28;20782;-47
2023/05/06 07:41:17;;;;;;;22.43;20.63;;;17.00;99.90;;;;;;5040028;28;20463;-46
2023/05/06 07:43:43;;;;;;;22.07;20.47;;;17.00;99.90;;;;;;5040414;28;20429;-45
2023/05/06 07:46:09;;;;;;;21.60;19.90;;;16.90;99.90;;;;;;5039884;28;20710;-48
2023/05/06 07:48:35;;;;;;;22.13;20.50;;;16.80;99.90;;;;;;5040573;28;20660;-47
2023/05/06 07:51:01;;;;;;;23.60;21.80;;;16.70;99.90;;;;;;5040118;28;20439;-45
2023/05/06 07:53:27;;;;;;;24.73;22.70;;;16.70;99.90;;;;;;5040343;28;20230;-50
2023/05/06 07:55:55;;;;;;;25.50;23.30;;;16.80;99.90;;;;;;5039984;28;20571;-45
2023/05/06 07:58:21;;;;;;;27.13;24.83;;;16.90;99.90;;;;;;5039814;28;20591;-49
2023/05/06 08:00:47;;;;;;;27.60;25.30;;;17.00;99.90;;;;;;5038913;28;20452;-44
2023/05/06 08:03:12;;;;;;;26.70;24.50;;;17.00;99.90;;;;;;5039711;28;20718;-47
2023/05/06 08:05:38;;;;;;;27.37;25.07;;;17.10;99.90;;;;;;5040368;28;20192;-51
2023/05/06 08:08:04;;;;;;;27.10;24.80;;;17.10;99.90;;;;;;5040401;28;20185;-47
2023/05/06 08:10:30;;;;;;;27.67;25.30;;;17.10;99.90;;;;;;5039738;28;20729;-48
2023/05/06 08:12:55;;;;;;;27.57;25.30;;;17.10;99.90;;;;;;5039845;28;20423;-45
2023/05/06 08:15:21;;;;;;;28.50;26.20;;;17.00;99.90;;;;;;5040353;28;20214;-48
2023/05/06 08:17:46;;;;;;;28.93;26.43;;;17.10;99.90;;;;;;5039713;28;20197;-48
2023/05/06 08:20:12;;;;;;;26.87;24.67;;;17.10;99.90;;;;;;5039694;28;20270;-45
2023/05/06 08:22:38;;;;;;;28.00;25.60;;;17.10;99.90;;;;;;5039323;28;20241;-51
2023/05/06 08:25:04;;;;;;;29.00;26.40;;;17.00;99.90;;;;;;5039425;28;20467;-49
2023/05/06 08:27:30;;;;;;;27.43;25.03;;;16.90;99.90;;;;;;5039169;28;20198;-51
2023/05/06 08:29:56;;;;;;;24.87;22.77;;;16.90;99.90;;;;;;5038807;28;20478;-50
2023/05/06 08:32:21;;;;;;;28.93;26.53;;;16.60;99.90;;;;;;5039763;28;20813;-51
2023/05/06 08:34:47;;;;;;;26.50;24.10;;;16.40;99.90;;;;;;5039201;28;20633;-47
2023/05/06 08:37:13;;;;;;;26.67;24.17;;;16.30;99.90;;;;;;5039673;28;20209;-49
2023/05/06 08:39:38;;;;;;;27.43;25.03;;;16.10;99.90;;;;;;5039555;28;20193;-48
2023/05/06 08:42:04;;;;;;;27.60;25.27;;;16.00;99.90;;;;;;5039481;28;20913;-50
2023/05/06 08:44:32;;;;;;;25.57;23.37;;;16.10;99.90;;;;;;5039752;28;20758;-45
2023/05/06 08:46:58;;;;;;;27.27;24.77;;;16.00;99.90;;;;;;5039261;28;20885;-48
2023/05/06 08:49:24;;;;;;;25.80;23.50;;;16.00;99.90;;;;;;5038085;28;20452;-46
2023/05/06 08:51:53;;;;;;;23.90;21.80;;;15.90;99.90;;;;;;5039256;28;20432;-47
2023/05/06 08:54:22;;;;;;;26.83;24.50;;;15.80;99.90;;;;;;5039123;28;20436;-48
2023/05/06 08:56:55;;;;;;;25.47;23.17;;;15.80;99.90;;;;;;5039327;28;20494;-45
2023/05/06 08:59:23;;;;;;;27.10;24.60;;;15.80;99.90;;;;;;5039250;28;20424;-45
2023/05/06 09:01:50;;;;;;;24.87;22.43;;;15.80;99.90;;;;;;5038069;28;20467;-48
2023/05/06 09:04:17;;;;;;;25.87;23.57;;;15.80;99.90;;;;;;5039286;28;20547;-45
2023/05/06 09:06:43;;;;;;;26.17;23.80;;;15.70;99.90;;;;;;5038931;28;20788;-46
2023/05/06 09:09:08;;;;;;;26.20;23.87;;;15.70;99.90;;;;;;5039280;28;20424;-45
2023/05/06 09:11:37;;;;;;;26.13;23.63;;;15.70;99.90;;;;;;5038672;28;20185;-44
2023/05/06 09:14:14;;;;;;;26.77;24.53;;;15.60;99.90;;;;;;5041705;28;20181;-45
2023/05/06 09:16:42;;;;;;;27.27;24.80;;;15.70;99.90;;;;;;5042913;28;20575;-49
2023/05/06 09:19:07;;;;;;;27.87;25.33;;;15.70;99.90;;;;;;5042696;28;20396;-48
2023/05/06 09:21:35;;;;;;;25.97;23.70;;;15.70;99.90;;;;;;5041820;28;21021;-48
2023/05/06 09:24:02;;;;;;;26.00;23.40;;;15.70;99.90;;;;;;5042670;28;20186;-49
2023/05/06 09:26:29;;;;;;;26.83;24.33;;;15.70;99.90;;;;;;5042237;28;20447;-46
2023/05/06 09:28:56;;;;;;;25.73;23.33;;;15.70;99.90;;;;;;5042918;28;20416;-49
2023/05/06 09:31:22;;;;;;;26.33;23.90;;;15.80;99.90;;;;;;5042070;28;20447;-47
2023/05/06 09:33:47;;;;;;;26.50;23.97;;;15.90;99.90;;;;;;5042424;28;21103;-48
2023/05/06 09:36:14;;;;;;;27.60;24.80;;;16.00;99.90;;;;;;5042716;28;20688;-48
2023/05/06 09:38:40;;;;;;;26.67;24.07;;;15.90;99.90;;;;;;5042792;28;20199;-48
2023/05/06 09:41:06;;;;;;;27.47;24.67;;;15.90;99.90;;;;;;5042764;28;20767;-46
2023/05/06 09:43:32;;;;;;;26.30;24.07;;;15.90;99.90;;;;;;5042720;28;20559;-47
2023/05/06 09:46:00;;;;;;;26.40;23.70;;;15.90;99.90;;;;;;5042427;28;20432;-47
2023/05/06 09:48:29;;;;;;;28.03;25.53;;;15.90;99.90;;;;;;5042713;28;20213;-50
2023/05/06 09:50:55;;;;;;;27.90;25.33;;;15.90;99.90;;;;;;5041656;28;20938;-50
2023/05/06 09:53:22;;;;;;;28.70;25.90;;;15.90;99.90;;;;;;5041791;28;21039;-47
2023/05/06 09:55:48;;;;;;;26.67;24.07;;;15.90;99.90;;;;;;5041923;28;20981;-47
2023/05/06 09:58:16;;;;;;;28.57;25.77;;;15.80;99.90;;;;;;5042535;28;20404;-50
2023/05/06 10:00:42;;;;;;;27.13;24.70;;;15.80;99.90;;;;;;5042507;28;20499;-46
2023/05/06 10:03:10;;;;;;;26.87;24.37;;;15.80;99.90;;;;;;5042194;28;20761;-46
2023/05/06 10:05:36;;;;;;;27.47;24.77;;;15.80;99.90;;;;;;5041810;28;20432;-50
2023/05/06 10:08:06;;;;;;;26.07;23.67;;;15.80;99.90;;;;;;5042267;28;20485;-49
2023/05/06 10:10:33;;;;;;;26.57;24.13;;;16.00;99.90;;;;;;5042123;28;20412;-49
2023/05/06 10:13:03;;;;;;;25.77;23.57;;;16.10;99.90;;;;;;5042197;28;20456;-48
2023/05/06 10:15:31;;;;;;;26.37;24.00;;;16.20;99.90;;;;;;5041946;28;20946;-47
2023/05/06 10:18:00;;;;;;;27.90;25.30;;;16.20;99.90;;;;;;5042367;28;20474;-51
2023/05/06 10:20:28;;;;;;;27.17;24.77;;;16.30;99.90;;;;;;5041420;28;20544;-46
2023/05/06 10:23:14;;;;;;;27.17;24.60;;;16.30;99.90;;;;;;5040675;28;20551;-51
2023/05/06 10:25:44;;;;;;;26.93;24.43;;;16.40;99.90;;;;;;5040724;28;20510;-49
2023/05/06 10:28:11;;;;;;;26.80;24.50;;;16.40;99.90;;;;;;5041723;28;20529;-48
2023/05/06 10:30:38;;;;;;;28.00;25.60;;;16.60;99.90;;;;;;5041847;28;20460;-49
2023/05/06 10:33:04;;;;;;;26.40;23.80;;;16.50;99.90;;;;;;5042055;28;20428;-46
2023/05/06 10:36:02;;;;;;;26.30;23.90;;;16.60;99.90;;;;;;5041746;28;21020;-47
2023/05/06 10:38:41;;;;;;;26.50;24.20;;;16.80;99.90;;;;;;5041020;28;20808;-46
2023/05/06 10:41:08;;;;;;;25.93;23.77;;;16.70;99.90;;;;;;5041056;28;20439;-48
2023/05/06 10:43:38;;;;;;;26.70;24.50;;;16.70;99.90;;;;;;5041220;28;20432;-45
2023/05/06 10:46:12;;;;;;;26.07;23.87;;;16.80;99.90;;;;;;5041219;28;20500;-49
2023/05/06 10:49:10;;;;;;;26.07;23.80;;;17.00;99.90;;;;;;5041042;28;20938;-50
2023/05/06 10:51:45;;;;;;;25.87;23.57;;;17.10;99.90;;;;;;5036353;28;20996;-49
2023/05/06 10:54:17;;;;;;;24.33;22.13;;;17.20;99.90;;;;;;5041015;28;20427;-46
2023/05/06 10:56:49;;;;;;;25.20;23.17;;;17.40;99.90;;;;;;5040557;28;20424;-50
2023/05/06 10:59:20;;;;;;;23.90;21.70;;;17.60;99.90;;;;;;5041571;28;21564;-48
2023/05/06 11:02:03;;;;;;;24.50;22.50;;;17.80;99.90;;;;;;5040746;28;20452;-53
2023/05/06 11:04:30;;;;;;;25.90;23.70;;;18.00;99.90;;;;;;5040732;28;20447;-50
2023/05/06 11:07:12;;;;;;;25.00;22.97;;;18.10;99.90;;;;;;5040812;28;20495;-52
2023/05/06 11:10:00;;;;;;;23.83;21.73;;;18.30;99.90;;;;;;5041233;28;20450;-49
2023/05/06 11:12:48;;;;;;;22.47;20.70;;;18.40;99.90;;;;;;5040189;28;20778;-50
2023/05/06 11:15:36;;;;;;;20.80;19.20;;;18.50;99.90;;;;;;5039475;28;20464;-50
2023/05/06 11:18:32;;;;;;;23.03;21.13;;;18.50;99.90;;;;;;5040552;28;20478;-45
2023/05/06 11:21:01;;;;;;;22.10;20.40;;;18.30;99.90;;;;;;5040739;28;20421;-50
2023/05/06 11:23:51;;;;;;;22.43;20.73;;;18.20;99.90;;;;;;5040252;28;21041;-51
2023/05/06 11:26:17;;;;;;;23.07;21.07;;;17.90;99.90;;;;;;5040478;28;20428;-50
2023/05/06 11:28:45;;;;;;;22.50;20.80;;;17.80;99.90;;;;;;5040401;28;20428;-51
2023/05/06 11:31:12;;;;;;;22.63;20.80;;;17.80;99.90;;;;;;5040017;28;20467;-50
2023/05/06 11:33:45;;;;;;;22.67;20.87;;;17.80;99.90;;;;;;5040104;28;20876;-47
2023/05/06 11:36:18;;;;;;;21.87;20.10;;;17.70;99.90;;;;;;5040014;28;20670;-48
2023/05/06 11:38:55;;;;;;;21.87;20.10;;;17.70;99.90;;;;;;5040318;28;20416;-50
2023/05/06 11:41:22;;;;;;;22.40;20.47;;;17.70;99.90;;;;;;5039363;28;20432;-47
2023/05/06 11:43:49;;;;;;;21.53;19.83;;;17.80;99.90;;;;;;5039680;28;20428;-47
2023/05/06 11:46:18;;;;;;;20.93;19.33;;;18.10;99.90;;;;;;5039732;28;20444;-46
2023/05/06 11:48:43;;;;;;;21.13;19.43;;;18.20;99.90;;;;;;5040019;28;20427;-48
2023/05/06 11:51:09;;;;;;;19.13;17.73;;;18.50;99.90;;;;;;5040116;28;20431;-45
2023/05/06 11:53:36;;;;;;;20.53;18.63;;;18.70;99.90;;;;;;5039734;28;20280;-52
2023/05/06 11:56:04;;;;;;;18.80;17.40;;;18.50;99.90;;;;;;5039949;28;20747;-50
2023/05/06 11:58:29;;;;;;;18.97;17.47;;;18.70;99.90;;;;;;5039601;28;20420;-48
2023/05/06 12:01:00;;;;;;;18.90;17.50;;;18.80;99.90;;;;;;5039980;28;20481;-51
2023/05/06 12:03:28;;;;;;;17.40;16.20;;;18.90;99.90;;;;;;5039858;28;20216;-46
2023/05/06 12:05:55;;;;;;;17.83;16.60;;;19.10;99.90;;;;;;5039639;28;20910;-47
2023/05/06 12:08:27;;;;;;;18.77;17.47;;;19.30;99.90;;;;;;5039748;28;20428;-50
2023/05/06 12:10:56;;;;;;;17.93;16.53;;;19.30;99.90;;;;;;5038988;28;20432;-48
2023/05/06 12:13:22;;;;;;;19.03;17.60;;;19.40;98.80;;;;;;5039246;28;20715;-49
2023/05/06 12:15:49;;;;;;;18.87;17.37;;;19.80;99.60;;;;;;5039621;28;20997;-51
2023/05/06 12:18:15;;;;;;;18.33;17.03;;;20.30;97.30;;;;;;5039152;28;20271;-47
2023/05/06 12:20:41;;;;;;;18.70;17.40;;;20.70;95.40;;;;;;5037641;28;20540;-48
2023/05/06 12:23:11;;;;;;;18.33;17.13;;;21.00;93.60;;;;;;5039017;28;20464;-52
2023/05/06 12:25:38;;;;;;;18.00;16.70;;;21.00;92.30;;;;;;5039387;28;20523;-49
2023/05/06 12:28:14;;;;;;;18.20;17.00;;;21.00;91.70;;;;;;5038981;28;20416;-45
2023/05/06 12:30:39;;;;;;;18.60;17.30;;;21.00;93.70;;;;;;5039136;28;20629;-47